Kliftrans — PCDB — position and weather

sailwx.info

Track history (hours):
 
Tides and Currents Weather Stations Pressure Air Temp Water Temp Dewpoint Dewpoint Depression Visibility Wind Speed Wind Dir Waves Ship Positions

Kliftrans

Last reported at 2015-Aug-26 22:17 UTC. Time now 2015-Aug-28 02:15 UTC.
Position N 43°36' W 005°58'.

Length 88 m; draft 3.2 m.

Type: Cargo ship. MMSI: 245132000.

Date/timePositionNaut miles runAvg speedWind from/ knotsBaromVisibWave heightAir tempDewpointWater temp
2015-Aug-26 22:17N 43°36' W 005°58'4 5.2
2015-Aug-26 21:32N 43°38' W 006°03'5 3.8
2015-Aug-26 20:17N 43°39' W 006°09'  
2015-Aug-22 16:04N 49°59' W 002°47'611.3
2015-Aug-22 15:33N 50°01' W 002°38'1210.5
2015-Aug-22 14:24N 50°04' W 002°20'8 9.5
2015-Aug-22 13:33N 50°07' W 002°08'9 8.6
2015-Aug-22 12:33N 50°09' W 001°56'9 8.5
2015-Aug-22 11:28N 50°13' W 001°42'23 9.9
2015-Aug-22 09:11N 50°25' W 001°12'810.7
2015-Aug-22 08:26N 50°28' W 001°01'4310.8
2015-Aug-22 04:26N 50°33' E 000°07'1010.9
2015-Aug-22 03:29N 50°36' E 000°23'1010.2
2015-Aug-22 02:33N 50°39' E 000°37'1010.0
2015-Aug-22 01:33N 50°45' E 000°49'1010.4
2015-Aug-22 00:33N 50°52' E 001°03'1211.5
2015-Aug-21 23:33N 50°59' E 001°17'1312.8
2015-Aug-21 22:33N 51°07' E 001°33'1212.3
2015-Aug-21 21:33N 51°15' E 001°47'1111.2
2015-Aug-21 20:33N 51°25' E 001°56'10 9.9
2015-Aug-21 19:33N 51°32' E 002°07'10 9.5
2015-Aug-21 18:33N 51°39' E 002°17'14010.5
2015-Aug-21 05:17N 53°31' E 004°35'1011.4
2015-Aug-21 04:23N 53°41' E 004°41'1411.3
2015-Aug-21 03:07N 53°54' E 004°50'611.1
2015-Aug-21 02:33N 53°60' E 004°54'1010.4
2015-Aug-21 01:32N 54°08' E 005°05'1010.2
2015-Aug-21 00:33N 54°14' E 005°19'1010.0
2015-Aug-20 23:33N 54°20' E 005°33'3912.1
2015-Aug-20 20:17N 54°42' E 006°29'5 5.3
2015-Aug-20 19:20N 54°45' E 006°36'911.1
2015-Aug-20 18:33N 54°50' E 006°48'1111.1
2015-Aug-20 17:33N 54°57' E 007°04'1110.9
2015-Aug-20 16:33N 55°03' E 007°19'1110.7
2015-Aug-20 15:33N 55°09' E 007°34'1110.7
2015-Aug-20 14:33N 55°15' E 007°49'1010.5
2015-Aug-20 13:33N 55°22' E 008°04'1110.5
2015-Aug-20 12:33N 55°28' E 008°19'3 3.0
2015-Aug-20 11:28N 55°29' E 008°25'0 0.0
2015-Aug-20 10:13N 55°29' E 008°25'0 0.0
2015-Aug-20 09:25N 55°29' E 008°25'0 0.0
2015-Aug-20 08:31N 55°29' E 008°25'0 0.0
2015-Aug-20 07:28N 55°29' E 008°25'0 0.0
2015-Aug-20 06:28N 55°29' E 008°25'0 0.0
2015-Aug-20 05:31N 55°29' E 008°25'0 0.0
2015-Aug-20 04:31N 55°29' E 008°25'0 0.0
2015-Aug-20 03:31N 55°29' E 008°25'0 0.0
2015-Aug-20 02:19N 55°29' E 008°25'0 0.0
2015-Aug-20 01:31N 55°29' E 008°25'0 0.0
2015-Aug-20 00:19N 55°29' E 008°25'0 0.0
2015-Aug-19 23:19N 55°29' E 008°25'0 0.0
2015-Aug-19 22:19N 55°29' E 008°25'0 0.0
2015-Aug-19 21:16N 55°29' E 008°25'0 0.0
2015-Aug-19 20:33N 55°29' E 008°25'0 0.0
2015-Aug-19 19:33N 55°29' E 008°25'0 0.0
2015-Aug-19 17:03N 55°29' E 008°25'0 0.0
2015-Aug-19 16:18N 55°29' E 008°25'0 0.0
2015-Aug-19 15:33N 55°29' E 008°25'0 0.0
2015-Aug-19 14:33N 55°29' E 008°25'0 0.0
2015-Aug-19 13:33N 55°29' E 008°25'0 0.0
2015-Aug-19 12:33N 55°29' E 008°25'0 0.0
2015-Aug-19 11:24N 55°29' E 008°25'0 0.0
2015-Aug-19 10:24N 55°29' E 008°25'0 0.0
2015-Aug-19 09:09N 55°29' E 008°25'0 0.0
2015-Aug-19 08:21N 55°29' E 008°25'0 0.0
2015-Aug-19 07:21N 55°29' E 008°25'0 0.0
2015-Aug-19 06:24N 55°29' E 008°25'0 0.0
2015-Aug-19 05:27N 55°29' E 008°25'0 0.0
2015-Aug-19 04:27N 55°29' E 008°25'0 0.0
2015-Aug-19 03:30N 55°29' E 008°25'0 0.0
2015-Aug-19 02:27N 55°29' E 008°25'0 0.0
2015-Aug-19 01:15N 55°29' E 008°25'0 0.0
2015-Aug-19 00:27N 55°29' E 008°25'0 0.0
2015-Aug-18 21:33N 55°29' E 008°25'0 0.0
2015-Aug-18 20:33N 55°29' E 008°25'4 4.2
2015-Aug-18 19:33N 55°27' E 008°18'1111.2
2015-Aug-18 18:33N 55°21' E 008°02'6 6.3
2015-Aug-18 17:33N 55°17' E 007°53'9 9.2
2015-Aug-18 16:33N 55°12' E 007°40'10 9.9
2015-Aug-18 15:33N 55°06' E 007°26'9 9.0
2015-Aug-18 14:33N 55°01' E 007°12'8 8.3
2015-Aug-18 13:33N 54°59' E 006°59'8 8.3
2015-Aug-18 12:33N 54°56' E 006°45'21510.2
2015-Aug-17 15:30N 53°46' E 000°56'1111.8
2015-Aug-17 14:33N 53°42' E 000°38'1111.4
2015-Aug-17 13:33N 53°37' E 000°21'1010.5
2015-Aug-17 12:33N 53°35' E 000°04'10 9.5
2015-Aug-17 11:33N 53°38' W 000°11'0 0.1
2015-Aug-17 10:31N 53°38' W 000°11'0 0.0
2015-Aug-17 09:31N 53°38' W 000°11'0 0.0
2015-Aug-17 08:31N 53°38' W 000°11'0 0.0
2015-Aug-17 07:34N 53°38' W 000°11'0 0.0
2015-Aug-17 06:30N 53°38' W 000°11'0 0.0
2015-Aug-17 05:33N 53°38' W 000°11'0 0.0
2015-Aug-17 04:33N 53°38' W 000°11'0 0.0
2015-Aug-17 03:30N 53°38' W 000°11'0 0.0
2015-Aug-17 02:33N 53°38' W 000°11'0 0.0
2015-Aug-17 01:33N 53°38' W 000°11'0 0.0
2015-Aug-17 00:33N 53°38' W 000°11'0 0.0
2015-Aug-16 23:33N 53°38' W 000°11'0 0.0
2015-Aug-16 22:33N 53°38' W 000°11'  
Track history (hours):
 
Tides and Currents Weather Stations Pressure Air Temp Water Temp Dewpoint Dewpoint Depression Visibility Wind Speed Wind Dir Waves Ship Positions

Kliftrans

Last reported at 2015-Aug-26 22:17 UTC. Time now 2015-Aug-28 02:15 UTC.
Position N 43°36' W 005°58'.

Length 88 m; draft 3.2 m.

Type: Cargo ship. MMSI: 245132000.

Date/timePositionNaut miles runAvg speedWind from/ knotsBaromVisibWave heightAir tempDewpointWater temp
2015-Aug-26 22:17N 43°36' W 005°58'4 5.2
2015-Aug-26 21:32N 43°38' W 006°03'5 3.8
2015-Aug-26 20:17N 43°39' W 006°09'  
2015-Aug-22 16:04N 49°59' W 002°47'611.3
2015-Aug-22 15:33N 50°01' W 002°38'1210.5
2015-Aug-22 14:24N 50°04' W 002°20'8 9.5
2015-Aug-22 13:33N 50°07' W 002°08'9 8.6
2015-Aug-22 12:33N 50°09' W 001°56'9 8.5
2015-Aug-22 11:28N 50°13' W 001°42'23 9.9
2015-Aug-22 09:11N 50°25' W 001°12'810.7
2015-Aug-22 08:26N 50°28' W 001°01'4310.8
2015-Aug-22 04:26N 50°33' E 000°07'1010.9
2015-Aug-22 03:29N 50°36' E 000°23'1010.2
2015-Aug-22 02:33N 50°39' E 000°37'1010.0
2015-Aug-22 01:33N 50°45' E 000°49'1010.4
2015-Aug-22 00:33N 50°52' E 001°03'1211.5
2015-Aug-21 23:33N 50°59' E 001°17'1312.8
2015-Aug-21 22:33N 51°07' E 001°33'1212.3
2015-Aug-21 21:33N 51°15' E 001°47'1111.2
2015-Aug-21 20:33N 51°25' E 001°56'10 9.9
2015-Aug-21 19:33N 51°32' E 002°07'10 9.5
2015-Aug-21 18:33N 51°39' E 002°17'14010.5
2015-Aug-21 05:17N 53°31' E 004°35'1011.4
2015-Aug-21 04:23N 53°41' E 004°41'1411.3
2015-Aug-21 03:07N 53°54' E 004°50'611.1
2015-Aug-21 02:33N 53°60' E 004°54'1010.4
2015-Aug-21 01:32N 54°08' E 005°05'1010.2
2015-Aug-21 00:33N 54°14' E 005°19'1010.0
2015-Aug-20 23:33N 54°20' E 005°33'3912.1
2015-Aug-20 20:17N 54°42' E 006°29'5 5.3
2015-Aug-20 19:20N 54°45' E 006°36'911.1
2015-Aug-20 18:33N 54°50' E 006°48'1111.1
2015-Aug-20 17:33N 54°57' E 007°04'1110.9
2015-Aug-20 16:33N 55°03' E 007°19'1110.7
2015-Aug-20 15:33N 55°09' E 007°34'1110.7
2015-Aug-20 14:33N 55°15' E 007°49'1010.5
2015-Aug-20 13:33N 55°22' E 008°04'1110.5
2015-Aug-20 12:33N 55°28' E 008°19'3 3.0
2015-Aug-20 11:28N 55°29' E 008°25'0 0.0
2015-Aug-20 10:13N 55°29' E 008°25'0 0.0
2015-Aug-20 09:25N 55°29' E 008°25'0 0.0
2015-Aug-20 08:31N 55°29' E 008°25'0 0.0
2015-Aug-20 07:28N 55°29' E 008°25'0 0.0
2015-Aug-20 06:28N 55°29' E 008°25'0 0.0
2015-Aug-20 05:31N 55°29' E 008°25'0 0.0
2015-Aug-20 04:31N 55°29' E 008°25'0 0.0
2015-Aug-20 03:31N 55°29' E 008°25'0 0.0
2015-Aug-20 02:19N 55°29' E 008°25'0 0.0
2015-Aug-20 01:31N 55°29' E 008°25'0 0.0
2015-Aug-20 00:19N 55°29' E 008°25'0 0.0
2015-Aug-19 23:19N 55°29' E 008°25'0 0.0
2015-Aug-19 22:19N 55°29' E 008°25'0 0.0
2015-Aug-19 21:16N 55°29' E 008°25'0 0.0
2015-Aug-19 20:33N 55°29' E 008°25'0 0.0
2015-Aug-19 19:33N 55°29' E 008°25'0 0.0
2015-Aug-19 17:03N 55°29' E 008°25'0 0.0
2015-Aug-19 16:18N 55°29' E 008°25'0 0.0
2015-Aug-19 15:33N 55°29' E 008°25'0 0.0
2015-Aug-19 14:33N 55°29' E 008°25'0 0.0
2015-Aug-19 13:33N 55°29' E 008°25'0 0.0
2015-Aug-19 12:33N 55°29' E 008°25'0 0.0
2015-Aug-19 11:24N 55°29' E 008°25'0 0.0
2015-Aug-19 10:24N 55°29' E 008°25'0 0.0
2015-Aug-19 09:09N 55°29' E 008°25'0 0.0
2015-Aug-19 08:21N 55°29' E 008°25'0 0.0
2015-Aug-19 07:21N 55°29' E 008°25'0 0.0
2015-Aug-19 06:24N 55°29' E 008°25'0 0.0
2015-Aug-19 05:27N 55°29' E 008°25'0 0.0
2015-Aug-19 04:27N 55°29' E 008°25'0 0.0
2015-Aug-19 03:30N 55°29' E 008°25'0 0.0
2015-Aug-19 02:27N 55°29' E 008°25'0 0.0
2015-Aug-19 01:15N 55°29' E 008°25'0 0.0
2015-Aug-19 00:27N 55°29' E 008°25'0 0.0
2015-Aug-18 21:33N 55°29' E 008°25'0 0.0
2015-Aug-18 20:33N 55°29' E 008°25'4 4.2
2015-Aug-18 19:33N 55°27' E 008°18'1111.2
2015-Aug-18 18:33N 55°21' E 008°02'6 6.3
2015-Aug-18 17:33N 55°17' E 007°53'9 9.2
2015-Aug-18 16:33N 55°12' E 007°40'10 9.9
2015-Aug-18 15:33N 55°06' E 007°26'9 9.0
2015-Aug-18 14:33N 55°01' E 007°12'8 8.3
2015-Aug-18 13:33N 54°59' E 006°59'8 8.3
2015-Aug-18 12:33N 54°56' E 006°45'21510.2
2015-Aug-17 15:30N 53°46' E 000°56'1111.8
2015-Aug-17 14:33N 53°42' E 000°38'1111.4
2015-Aug-17 13:33N 53°37' E 000°21'1010.5
2015-Aug-17 12:33N 53°35' E 000°04'10 9.5
2015-Aug-17 11:33N 53°38' W 000°11'0 0.1
2015-Aug-17 10:31N 53°38' W 000°11'0 0.0
2015-Aug-17 09:31N 53°38' W 000°11'0 0.0
2015-Aug-17 08:31N 53°38' W 000°11'0 0.0
2015-Aug-17 07:34N 53°38' W 000°11'0 0.0
2015-Aug-17 06:30N 53°38' W 000°11'0 0.0
2015-Aug-17 05:33N 53°38' W 000°11'0 0.0
2015-Aug-17 04:33N 53°38' W 000°11'0 0.0
2015-Aug-17 03:30N 53°38' W 000°11'0 0.0
2015-Aug-17 02:33N 53°38' W 000°11'0 0.0
2015-Aug-17 01:33N 53°38' W 000°11'0 0.0
2015-Aug-17 00:33N 53°38' W 000°11'0 0.0
2015-Aug-16 23:33N 53°38' W 000°11'0 0.0
2015-Aug-16 22:33N 53°38' W 000°11'  

Dump ship's entire track history